createdAt,value
2023-01-02T09:24:25.917Z,1016.768127
2023-01-02T09:24:32.964Z,1016.870422
2023-01-02T09:25:35.978Z,1016.988037
2023-01-02T09:26:33.718Z,1017.001404
2023-01-02T09:27:31.216Z,1017.0354
2023-01-02T09:28:32.409Z,1017.072327
2023-01-02T09:29:29.938Z,1017.040833
2023-01-02T09:30:31.061Z,1016.950562
2023-01-02T09:31:30.131Z,1017.058777
2023-01-02T09:33:24.761Z,1017.142578
2023-01-02T09:34:23.053Z,1017.026672
2023-01-02T09:35:19.978Z,1017.071289
2023-01-02T09:36:18.571Z,1017.120911
2023-01-02T09:38:18.818Z,1017.272339
2023-01-02T09:39:15.509Z,1017.26532
2023-01-02T09:40:21.874Z,1017.302307
2023-01-02T09:41:11.715Z,1017.329224
2023-01-02T09:42:07.551Z,1017.278015
2023-01-02T09:43:20.206Z,1017.24939
2023-01-02T09:44:13.693Z,1017.172668
2023-01-02T09:45:09.303Z,1017.232361
2023-01-02T09:46:07.490Z,1017.275879
2023-01-02T09:48:01.276Z,1017.405884
2023-01-02T09:48:56.632Z,1017.373718
2023-01-02T09:49:52.559Z,1017.325806
2023-01-02T09:50:56.682Z,1017.356079
2023-01-02T09:51:07.759Z,1017.39386
2023-01-02T09:53:00.244Z,1017.470947
2023-01-02T09:53:58.447Z,1017.466553
2023-01-02T09:54:57.839Z,1017.456421
2023-01-02T09:56:23.077Z,1017.531921
2023-01-02T09:58:03.460Z,1017.577393
2023-01-02T09:59:04.835Z,1017.575439
2023-01-02T10:00:04.819Z,1017.613892
2023-01-02T10:01:03.976Z,1017.606384
2023-01-02T10:03:05.976Z,1017.689209
2023-01-02T10:03:08.288Z,1017.689209
2023-01-02T10:04:04.357Z,1017.622925
2023-01-02T10:05:00.834Z,1017.753784
2023-01-02T10:06:05.227Z,1017.737793
2023-01-02T10:06:59.520Z,1017.845215
2023-01-02T10:08:01.447Z,1017.802368
2023-01-02T10:08:59.531Z,1017.824219
2023-01-02T10:10:00.641Z,1017.781372
2023-01-02T10:10:56.044Z,1017.845886
2023-01-02T10:12:54.900Z,1017.852234
2023-01-02T10:14:18.895Z,1017.8927
2023-01-02T10:14:53.245Z,1017.902832
2023-01-02T10:15:54.931Z,1017.897095
2023-01-02T10:17:52.827Z,1017.877869
2023-01-02T10:18:50.259Z,1017.881226
2023-01-02T10:19:50.146Z,1017.899597
2023-01-02T10:20:45.159Z,1017.929749
2023-01-02T10:21:44.791Z,1017.974915
2023-01-02T10:22:44.815Z,1017.897827
2023-01-02T10:23:41.355Z,1017.962341
2023-01-02T10:24:47.911Z,1017.884827
2023-01-02T10:25:45.622Z,1017.960266
2023-01-02T10:25:52.753Z,1017.960266
2023-01-02T10:25:53.204Z,1017.960266
2023-01-02T10:26:47.802Z,1018.072693
2023-01-02T10:28:53.964Z,1018.026184
2023-01-02T10:29:47.249Z,1018.090698
2023-01-02T10:30:53.516Z,1018.035034
2023-01-02T10:31:51.441Z,1018.118164
2023-01-02T10:33:44.618Z,1018.107361
2023-01-02T10:35:10.208Z,1018.032654
2023-01-02T10:35:54.128Z,1018.113159
2023-01-02T10:37:51.998Z,1018.16687
2023-01-02T10:38:52.054Z,1018.116089
2023-01-02T10:39:55.783Z,1018.170471
2023-01-02T10:40:56.426Z,1018.090576
2023-01-02T10:42:59.768Z,1018.074646
2023-01-02T10:43:57.792Z,1018.096313
2023-01-02T10:44:53.326Z,1018.107178
2023-01-02T10:45:54.706Z,1018.015869
2023-01-02T10:47:51.137Z,1018.010681
2023-01-02T10:48:52.297Z,1017.994812
2023-01-02T10:49:48.189Z,1017.971375
2023-01-02T10:50:44.757Z,1018.024963
2023-01-02T10:51:43.071Z,1018.051819
2023-01-02T10:52:43.617Z,1018.107788
2023-01-02T10:53:38.795Z,1018.100281
2023-01-02T10:54:48.354Z,1018.057434
2023-01-02T10:54:51.128Z,1018.057434
2023-01-02T10:55:40.172Z,1018.073486
2023-01-02T10:56:43.638Z,1018.056885
2023-01-02T10:57:37.287Z,1018.034546
2023-01-02T10:58:47.990Z,1018.06134
2023-01-02T10:59:45.367Z,1018.106628
2023-01-02T11:00:43.058Z,1018.256653
2023-01-02T11:01:46.656Z,1018.251587
2023-01-02T11:02:43.368Z,1018.12085
2023-01-02T11:03:47.751Z,1018.133972
2023-01-02T11:04:44.869Z,1018.09967
2023-01-02T11:05:46.565Z,1018.164246
2023-01-02T11:06:43.631Z,1018.249756
2023-01-02T11:07:48.102Z,1018.203613
2023-01-02T11:08:44.377Z,1018.217834
2023-01-02T11:09:47.651Z,1018.201843
2023-01-02T11:10:49.229Z,1018.190979
2023-01-02T11:11:18.837Z,1018.190979
2023-01-02T11:13:16.359Z,1018.191528
2023-01-02T11:13:40.624Z,1018.161011
2023-01-02T11:14:45.304Z,1018.186584
2023-01-02T11:15:47.387Z,1018.199158
2023-01-02T11:16:46.432Z,1018.162231
2023-01-02T11:18:55.067Z,1018.216492
2023-01-02T11:20:00.193Z,1018.153198
2023-01-02T11:20:57.385Z,1018.247437
2023-01-02T11:23:04.780Z,1018.336548
2023-01-02T11:24:10.797Z,1018.337158
2023-01-02T11:25:09.949Z,1018.367371
2023-01-02T11:26:12.309Z,1018.351379
2023-01-02T11:28:11.524Z,1018.394226
2023-01-02T11:29:14.060Z,1018.385803
2023-01-02T11:30:14.370Z,1018.405029
2023-01-02T11:31:15.401Z,1018.357056
2023-01-02T11:33:17.499Z,1018.332642
2023-01-02T11:34:14.121Z,1018.330261
2023-01-02T11:35:10.468Z,1018.40741
2023-01-02T11:36:17.226Z,1018.399841
2023-01-02T11:38:16.870Z,1018.519897
2023-01-02T11:39:17.860Z,1018.434204
2023-01-02T11:40:20.478Z,1018.496277
2023-01-02T11:41:22.337Z,1018.560852
2023-01-02T11:42:26.525Z,1018.498718
2023-01-02T11:43:28.649Z,1018.488464
2023-01-02T11:44:28.393Z,1018.510193
2023-01-02T11:45:31.589Z,1018.459778
2023-01-02T11:46:56.536Z,1018.425171
2023-01-02T11:47:38.097Z,1018.357605
2023-01-02T11:48:42.903Z,1018.413147
2023-01-02T11:49:35.787Z,1018.442627
2023-01-02T11:50:35.615Z,1018.421509
2023-01-02T11:51:34.121Z,1018.502014
2023-01-02T11:53:31.762Z,1018.424011
2023-01-02T11:54:31.595Z,1018.439941
2023-01-02T11:55:34.251Z,1018.461731
2023-01-02T11:56:37.710Z,1018.427368
2023-01-02T11:58:34.775Z,1018.469421
2023-01-02T11:59:28.106Z,1018.450195
2023-01-02T12:00:28.078Z,1018.487854
2023-01-02T12:02:51.355Z,1018.386292
2023-01-02T12:03:31.403Z,1018.394775
2023-01-02T12:05:40.634Z,1018.466248
2023-01-02T12:06:17.440Z,1018.406799
2023-01-02T12:07:17.670Z,1018.438049
2023-01-02T12:08:16.125Z,1018.511658
2023-01-02T12:09:21.232Z,1018.455566
2023-01-02T12:12:21.217Z,1018.456177
2023-01-02T12:13:06.723Z,1018.513733
2023-01-02T12:17:48.941Z,1018.681091
2023-01-02T12:17:57.106Z,1018.538696
2023-01-02T12:37:28.351Z,1018.739746
2023-01-02T12:47:33.751Z,1018.927124
2023-01-02T12:52:56.785Z,1018.781738
2023-01-02T13:03:00.300Z,1018.842163
2023-01-02T13:03:25.463Z,1018.815308
2023-01-02T13:04:24.556Z,1018.903625
2023-01-02T13:05:26.921Z,1018.998596
2023-01-02T13:06:44.907Z,1019.003418
2023-01-02T13:06:45.245Z,1019.003418
2023-01-02T13:06:45.477Z,1019.003418
2023-01-02T13:08:19.586Z,1018.916443
2023-01-02T13:10:25.165Z,1018.814026
2023-01-02T13:11:05.304Z,1018.885193
2023-01-02T13:13:06.166Z,1018.886475
2023-01-02T13:22:39.638Z,1019.022522
2023-01-02T13:27:43.161Z,1018.957336
2023-01-02T13:32:52.979Z,1018.913757
2023-01-02T13:38:10.033Z,1019.012268
2023-01-02T13:38:20.110Z,1019.023987
2023-01-02T13:39:22.541Z,1019.035706
2023-01-02T13:40:20.246Z,1019.045044
2023-01-02T13:41:17.134Z,1019.147644
2023-01-02T13:42:18.521Z,1019.183472
2023-01-02T13:43:18.473Z,1019.25354
2023-01-02T13:44:23.389Z,1019.260864
2023-01-02T13:45:17.808Z,1019.263
2023-01-02T13:46:53.147Z,1019.272766
2023-01-02T13:47:01.013Z,1019.272766
2023-01-02T13:47:01.511Z,1019.272766
2023-01-02T13:47:11.033Z,1019.313782
2023-01-02T13:48:10.455Z,1019.319397
2023-01-02T13:49:05.645Z,1019.291504
2023-01-02T13:50:04.028Z,1019.375732
2023-01-02T13:50:57.561Z,1019.290649
2023-01-02T13:51:56.549Z,1019.382446
2023-01-02T13:52:53.182Z,1019.281921
2023-01-02T13:53:53.616Z,1019.344055
2023-01-02T13:54:52.709Z,1019.307068
2023-01-02T13:55:53.154Z,1019.304932
2023-01-02T13:56:49.507Z,1019.198059
2023-01-02T13:58:45.341Z,1019.258667
2023-01-02T13:59:50.250Z,1019.28302
2023-01-02T14:00:41.767Z,1019.309875
2023-01-02T14:01:40.280Z,1019.436157
2023-01-02T14:02:38.956Z,1019.401245
2023-01-02T14:03:39.698Z,1019.367065
2023-01-02T14:04:33.939Z,1019.439453
2023-01-02T14:05:34.957Z,1019.407471
2023-01-02T14:06:27.248Z,1019.421204
2023-01-02T14:08:28.942Z,1019.485779
2023-01-02T14:09:26.469Z,1019.496521
2023-01-02T14:10:24.280Z,1019.515869
2023-01-02T14:11:17.104Z,1019.416138
2023-01-02T14:13:13.057Z,1019.480652
2023-01-02T14:14:11.198Z,1019.4646
2023-01-02T14:16:17.006Z,1019.490906
2023-01-02T14:16:36.758Z,1019.608093
2023-01-02T14:18:32.358Z,1019.635986
2023-01-02T14:19:31.750Z,1019.657654
2023-01-02T14:20:31.836Z,1019.754639
2023-01-02T14:21:31.898Z,1019.79541
2023-01-02T14:23:31.735Z,1019.828918
2023-01-02T14:24:29.494Z,1019.812866
2023-01-02T14:24:30.353Z,1019.812866
2023-01-02T14:25:25.498Z,1019.78595
2023-01-02T14:26:20.764Z,1019.807678
2023-01-02T14:28:14.705Z,1019.835022
2023-01-02T14:29:18.161Z,1019.733398
2023-01-02T14:30:10.707Z,1019.717468
2023-01-02T14:31:09.928Z,1019.725952
2023-01-02T14:32:10.195Z,1019.752686
2023-01-02T14:33:10.018Z,1019.785034
2023-01-02T14:34:07.146Z,1019.855225
2023-01-02T14:35:09.379Z,1019.879761
2023-01-02T14:36:05.270Z,1019.909363
2023-01-02T14:38:04.231Z,1019.941284
2023-01-02T14:39:05.127Z,1019.839661
2023-01-02T14:40:01.201Z,1019.885437
2023-01-02T14:41:02.218Z,1019.84259
2023-01-02T14:43:02.917Z,1019.859009
2023-01-02T14:43:59.144Z,1019.859009
2023-01-02T14:44:58.649Z,1019.811035
2023-01-02T14:45:54.080Z,1019.832703
2023-01-02T14:46:54.897Z,1019.832703
2023-01-02T14:47:48.201Z,1019.805908
2023-01-02T14:48:51.825Z,1019.891479
2023-01-02T14:49:47.623Z,1019.891479
2023-01-02T14:50:48.040Z,1019.902283
2023-01-02T14:51:47.134Z,1019.921631
2023-01-02T14:52:42.192Z,1020.023621
2023-01-02T14:53:51.509Z,1020.10968
2023-01-02T14:54:49.204Z,1020.170837
2023-01-02T14:55:50.071Z,1020.190186
2023-01-02T14:56:45.543Z,1020.219238
2023-01-02T14:58:49.037Z,1020.17981
2023-01-02T14:59:41.565Z,1020.217407
2023-01-02T15:00:45.670Z,1020.182617
2023-01-02T15:01:44.429Z,1020.244202
2023-01-02T15:04:27.148Z,1020.209961
2023-01-02T15:06:44.859Z,1020.237793
2023-01-02T15:08:27.201Z,1020.288269
2023-01-02T15:09:30.694Z,1020.268127
2023-01-02T15:10:27.045Z,1020.239197
2023-01-02T15:11:27.734Z,1020.237427
2023-01-02T15:12:25.078Z,1020.253967
2023-01-02T15:13:23.836Z,1020.314209
2023-01-02T15:14:23.619Z,1020.322449
2023-01-02T15:15:22.805Z,1020.346924
2023-01-02T15:16:18.095Z,1020.309814
2023-01-02T15:17:23.973Z,1020.414795
2023-01-02T15:18:20.147Z,1020.306519
2023-01-02T18:02:09.542Z,1022.583862
2023-01-02T18:03:33.467Z,1022.688354
2023-01-02T18:04:35.992Z,1022.651062
2023-01-02T18:05:31.288Z,1022.75946
2023-01-02T18:06:29.925Z,1022.772339
2023-01-02T18:08:19.966Z,1022.848694
2023-01-02T18:09:11.898Z,1022.866089
2023-01-02T18:10:12.569Z,1022.966064
2023-01-02T18:10:19.413Z,1022.966064
2023-01-02T18:10:20.776Z,1022.966064
2023-01-02T18:11:05.837Z,1022.923645
2023-01-02T18:11:58.395Z,1022.996643
2023-01-02T18:13:50.629Z,1023.083313
2023-01-02T18:14:47.319Z,1023.124023
2023-01-02T18:15:48.530Z,1023.123718
2023-01-02T18:16:49.727Z,1023.135132
2023-01-02T18:18:36.895Z,1023.247498
2023-01-02T18:19:29.635Z,1023.255432
2023-01-02T18:20:28.081Z,1023.269165
2023-01-02T18:21:23.738Z,1023.271301
2023-01-02T18:23:12.309Z,1023.314575
2023-01-02T18:24:07.193Z,1023.335815
2023-01-02T18:25:04.193Z,1023.370483
2023-01-02T18:26:10.916Z,1023.290588
2023-01-02T18:27:00.433Z,1023.365479
2023-01-02T18:28:01.734Z,1023.359985
2023-01-02T18:29:09.812Z,1023.319397
2023-01-02T18:29:10.233Z,1023.319397
2023-01-02T18:30:02.863Z,1023.330078
2023-01-02T18:30:55.396Z,1023.333191
2023-01-02T18:31:58.256Z,1023.308472
2023-01-02T18:32:48.831Z,1023.434692
2023-01-02T18:33:44.519Z,1023.410645
2023-01-02T18:34:48.203Z,1023.319702
2023-01-02T18:34:50.304Z,1023.319702
2023-01-02T18:35:58.069Z,1023.439819
2023-01-02T18:35:58.818Z,1023.439819
2023-01-02T18:36:42.707Z,1023.461304
2023-01-02T18:37:43.864Z,1023.531006
2023-01-02T18:38:40.309Z,1023.595154
2023-01-02T18:39:32.735Z,1023.646057
2023-01-02T18:40:34.898Z,1023.616333
2023-01-02T18:41:27.360Z,1023.640381
2023-01-02T18:43:18.458Z,1023.704285
2023-01-02T18:44:13.146Z,1023.65387
2023-01-02T18:45:12.044Z,1023.702026
2023-01-02T18:46:09.891Z,1023.669678
2023-01-02T18:47:09.455Z,1023.693237
2023-01-02T18:47:59.522Z,1023.669495
2023-01-02T18:48:59.354Z,1023.650391
2023-01-02T18:50:03.557Z,1023.696289
2023-01-02T18:51:02.814Z,1023.661072
2023-01-02T18:51:52.529Z,1023.696289
2023-01-02T18:53:29.327Z,1023.741455
2023-01-02T18:54:09.529Z,1023.760986
2023-01-02T18:55:12.943Z,1023.747253
2023-01-02T18:56:09.256Z,1023.830505
2023-01-02T18:57:08.521Z,1023.816589
2023-01-02T18:58:12.145Z,1023.784241
2023-01-02T18:59:06.429Z,1023.78949
2023-01-02T19:00:05.806Z,1023.819275
2023-01-02T19:01:01.502Z,1023.848206
2023-01-02T19:03:00.044Z,1023.872559
2023-01-02T19:04:00.411Z,1023.934265
2023-01-02T19:05:00.172Z,1023.918213
2023-01-02T19:05:55.041Z,1024.000732
2023-01-02T19:06:55.985Z,1023.939331
2023-01-02T19:07:54.269Z,1023.931213
2023-01-02T19:08:56.256Z,1023.957886
2023-01-02T19:09:52.637Z,1023.952454
2023-01-02T19:10:53.405Z,1023.971252
2023-01-02T19:11:49.793Z,1023.9953
2023-01-02T19:12:52.623Z,1023.952454
2023-01-02T19:13:55.214Z,1024.053955
2023-01-02T19:13:58.743Z,1024.053955
2023-01-02T19:14:48.271Z,1024.040894
2023-01-02T19:15:47.564Z,1024.080933
2023-01-02T19:16:44.135Z,1024.097168
2023-01-02T19:17:47.524Z,1024.169312
2023-01-02T19:18:44.228Z,1024.209106
2023-01-02T19:19:43.741Z,1024.187622
2023-01-02T19:20:38.182Z,1024.190308
2023-01-02T19:21:39.530Z,1024.166016
2023-01-02T19:23:36.731Z,1024.184937
2023-01-02T19:24:29.097Z,1024.149902
2023-01-02T19:26:19.547Z,1024.161133
2023-01-02T19:28:14.026Z,1024.266357
2023-01-02T19:29:10.654Z,1024.200195
2023-01-02T19:30:18.989Z,1024.245239
2023-01-02T19:30:20.925Z,1024.245239
2023-01-02T19:31:10.993Z,1024.261108
2023-01-02T19:32:08.069Z,1024.260742
2023-01-02T19:33:08.930Z,1024.269165
2023-01-02T19:34:05.690Z,1024.375854
2023-01-02T19:35:06.011Z,1024.370361
2023-01-02T19:36:01.325Z,1024.426636
2023-01-02T19:38:00.155Z,1024.39209
2023-01-02T19:38:59.249Z,1024.421021
2023-01-02T19:39:55.236Z,1024.458252
2023-01-02T19:40:54.387Z,1024.543701
2023-01-02T19:41:50.835Z,1024.634521
2023-01-02T19:42:50.657Z,1024.546753
2023-01-02T19:43:46.033Z,1024.554321
2023-01-02T19:44:49.092Z,1024.548828
2023-01-02T19:45:44.549Z,1024.605469
2023-01-02T19:46:46.667Z,1024.616089
2023-01-02T19:47:39.202Z,1024.612915
2023-01-02T19:48:40.343Z,1024.599976
2023-01-02T19:49:35.727Z,1024.675049
2023-01-02T19:50:36.962Z,1024.666504
2023-01-02T19:51:29.795Z,1024.752075
2023-01-02T19:52:31.568Z,1024.730835
2023-01-02T19:53:24.086Z,1024.846313
2023-01-02T19:54:27.496Z,1024.730835
2023-01-02T19:55:19.829Z,1024.800415
2023-01-02T19:56:20.013Z,1024.902344
2023-01-02T19:58:23.463Z,1024.733887
2023-01-02T19:59:19.625Z,1024.849121
2023-01-02T20:00:21.600Z,1024.846436
2023-01-02T20:01:14.283Z,1024.846436
2023-01-02T20:03:12.665Z,1024.835693
2023-01-02T20:04:21.048Z,1024.905273
2023-01-02T20:05:22.644Z,1024.924072
2023-01-02T20:06:20.124Z,1024.934814
2023-01-02T20:07:16.620Z,1024.964233
2023-01-02T20:08:14.173Z,1024.924072
2023-01-02T20:09:15.581Z,1024.910522
2023-01-02T20:10:12.398Z,1024.972168
2023-01-02T20:11:16.868Z,1025.041748
2023-01-02T20:12:08.752Z,1025.065796
2023-01-02T20:13:13.023Z,1025.017822
2023-01-02T20:14:05.415Z,1025.050049
2023-01-02T20:15:07.547Z,1025.031494
2023-01-02T20:16:04.633Z,1025.084961
2023-01-02T20:18:22.641Z,1025.004761
2023-01-02T20:19:19.782Z,1025.046143
2023-01-02T20:20:18.551Z,1024.998413
2023-01-02T20:21:18.574Z,1024.979248
2023-01-02T20:23:16.566Z,1025.001221
2023-01-02T20:24:11.816Z,1025.070557
2023-01-02T20:25:12.858Z,1025.099487
2023-01-02T20:26:08.971Z,1025.171753
2023-01-02T20:28:05.405Z,1025.169067
2023-01-02T20:29:04.798Z,1025.099487
2023-01-02T20:30:03.816Z,1025.13147
2023-01-02T20:30:59.016Z,1025.064453
2023-01-02T20:32:00.277Z,1025.166138
2023-01-02T20:32:52.650Z,1025.203613
2023-01-02T20:33:54.355Z,1025.230225
2023-01-02T20:34:47.116Z,1025.240845
2023-01-02T20:35:49.016Z,1025.240845
2023-01-02T20:36:45.893Z,1025.339844
2023-01-02T20:37:46.830Z,1025.2677
2023-01-02T20:38:52.707Z,1025.33728
2023-01-02T20:39:54.980Z,1025.291748
2023-01-02T20:40:49.319Z,1025.348022
2023-01-02T20:41:51.100Z,1025.348022
2023-01-02T20:42:48.938Z,1025.393433
2023-01-02T20:43:50.099Z,1025.38562
2023-01-02T20:44:44.446Z,1025.361328
2023-01-02T20:45:46.678Z,1025.382568
2023-01-02T20:46:38.629Z,1025.414551
2023-01-02T20:47:39.995Z,1025.422729
2023-01-02T20:48:38.214Z,1025.395996
2023-01-02T20:49:40.111Z,1025.481323
2023-01-02T20:50:34.437Z,1025.470703
2023-01-02T20:51:37.058Z,1025.460205
2023-01-02T20:53:36.317Z,1025.460449
2023-01-02T20:54:39.075Z,1025.454956
2023-01-02T20:55:36.671Z,1025.516479
2023-01-02T20:56:36.651Z,1025.516479
2023-01-02T20:57:33.057Z,1025.545898
2023-01-02T20:58:34.242Z,1025.588379
2023-01-02T20:59:28.901Z,1025.602051
2023-01-02T21:00:30.882Z,1025.625854
2023-01-02T21:01:26.803Z,1025.666016
2023-01-02T21:02:25.849Z,1025.671509
2023-01-02T21:03:24.871Z,1025.674194
2023-01-02T21:05:26.207Z,1025.738525
2023-01-02T21:05:53.996Z,1025.661499
2023-01-02T21:06:57.491Z,1025.76062
2023-01-02T21:08:55.795Z,1025.755127
2023-01-02T21:09:53.989Z,1025.872925
2023-01-02T21:10:48.415Z,1025.742065
2023-01-02T21:11:48.052Z,1025.752686
2023-01-02T21:12:44.436Z,1025.851196
2023-01-02T21:13:45.904Z,1025.861938
2023-01-02T21:14:43.204Z,1025.859497
2023-01-02T21:15:42.664Z,1025.901978
2023-01-02T21:16:54.728Z,1025.894043
2023-01-02T21:17:56.618Z,1025.843018
2023-01-02T21:18:48.664Z,1025.950073
2023-01-02T21:19:50.832Z,1025.87793
2023-01-02T21:20:47.631Z,1025.933838
2023-01-02T21:21:42.964Z,1025.933838
2023-01-02T21:23:41.101Z,1025.95813
2023-01-02T21:24:40.534Z,1026.01416
2023-01-02T21:25:34.910Z,1026.02478
2023-01-02T21:26:35.302Z,1026.094238
2023-01-02T21:28:32.759Z,1026.107422
2023-01-02T21:29:25.420Z,1026.040894
2023-01-02T21:30:37.282Z,1026.117798
2023-01-02T21:31:40.471Z,1026.083496
2023-01-02T21:32:37.809Z,1026.107056
2023-01-02T21:33:37.827Z,1026.099487
2023-01-02T21:34:38.084Z,1026.048096
2023-01-02T21:36:30.297Z,1026.062134
2023-01-02T21:36:50.638Z,1026.056763
2023-01-02T21:37:49.831Z,1026.062866
2023-01-02T21:38:56.802Z,1026.154175
2023-01-02T21:39:54.980Z,1026.095215
2023-01-02T21:40:55.315Z,1026.172241
2023-01-02T21:41:55.885Z,1026.236572
2023-01-02T21:43:51.414Z,1026.145264
2023-01-02T21:44:54.155Z,1026.1427
2023-01-02T21:45:46.999Z,1026.099854
2023-01-02T21:46:50.574Z,1026.196167
2023-01-02T21:48:51.892Z,1026.12915
2023-01-02T21:49:48.692Z,1026.182739
2023-01-02T21:50:51.121Z,1026.155884
2023-01-02T21:51:43.485Z,1026.153198
2023-01-02T21:53:41.473Z,1026.160889
2023-01-02T21:54:36.232Z,1026.144775
2023-01-02T21:55:35.736Z,1026.214478
2023-01-02T21:56:34.685Z,1026.208862
2023-01-02T21:58:02.737Z,1026.244263
2023-01-02T21:58:11.119Z,1026.244263
2023-01-02T21:58:11.474Z,1026.244263
2023-01-02T21:58:33.524Z,1026.196167
2023-01-02T21:59:32.986Z,1026.268311
2023-01-02T22:00:28.336Z,1026.206787
2023-01-02T22:01:29.047Z,1026.179932
2023-01-02T22:02:32.813Z,1026.137085
2023-01-02T22:02:36.759Z,1026.137085
2023-01-02T22:02:38.669Z,1026.137085
2023-01-02T22:03:25.959Z,1026.265747
2023-01-02T22:04:22.275Z,1026.252563
2023-01-02T22:05:21.852Z,1026.255005
2023-01-02T22:06:19.538Z,1026.305786
2023-01-02T22:08:18.736Z,1026.254883
2023-01-02T22:09:17.981Z,1026.214111
2023-01-02T22:10:18.499Z,1026.240845
2023-01-02T22:11:20.689Z,1026.245972
2023-01-02T22:12:15.890Z,1026.296997
2023-01-02T22:13:19.268Z,1026.278076
2023-01-02T22:14:12.222Z,1026.344604
2023-01-02T22:15:22.873Z,1026.352295
2023-01-02T22:16:20.850Z,1026.434937
2023-01-02T22:18:18.797Z,1026.483032
2023-01-02T22:19:22.891Z,1026.467407
2023-01-02T22:20:22.915Z,1026.496338
2023-01-02T22:21:22.082Z,1026.55835
2023-01-02T22:23:49.353Z,1026.590088
2023-01-02T22:24:39.128Z,1026.592163
2023-01-02T22:24:44.253Z,1026.592163
2023-01-02T22:24:44.988Z,1026.592163
2023-01-02T22:25:35.553Z,1026.665283
2023-01-02T22:26:33.007Z,1026.745361
2023-01-02T22:27:39.242Z,1026.635986
2023-01-02T22:28:38.648Z,1026.675659
2023-01-02T22:30:18.645Z,1026.616699
2023-01-02T22:30:20.495Z,1026.616699
2023-01-02T22:30:42.367Z,1026.648926
2023-01-02T22:31:41.666Z,1026.611572
2023-01-02T22:32:54.566Z,1026.611572
2023-01-02T22:33:57.814Z,1026.603638
2023-01-02T22:34:53.158Z,1026.614258
2023-01-02T22:35:54.975Z,1026.62793
2023-01-02T22:36:57.828Z,1026.64917
2023-01-02T22:39:27.551Z,1026.685913
2023-01-02T22:39:28.080Z,1026.685913
2023-01-02T22:39:29.557Z,1026.685913
2023-01-02T22:40:08.119Z,1026.789551
2023-01-02T22:41:08.015Z,1026.685913
2023-01-02T22:42:03.166Z,1026.787842
2023-01-02T22:43:06.312Z,1026.787842
2023-01-02T22:44:02.832Z,1026.814209
2023-01-02T22:45:03.861Z,1026.789551
2023-01-02T22:46:00.490Z,1026.923218
2023-01-02T22:47:04.544Z,1026.885986
2023-01-02T22:49:04.249Z,1026.941284
2023-01-02T22:50:11.810Z,1027.037109
2023-01-02T22:50:12.513Z,1027.037109
2023-01-02T22:51:07.247Z,1027.072144
2023-01-02T22:53:13.420Z,1027.098877
2023-01-02T22:54:14.499Z,1027.026489
2023-01-02T22:55:10.251Z,1027.077759
2023-01-02T22:56:07.646Z,1027.085571
2023-01-02T22:58:06.290Z,1027.168457
2023-01-02T22:59:11.652Z,1027.109375
2023-01-02T23:00:06.933Z,1027.133545
2023-01-02T23:01:23.662Z,1027.077148
2023-01-02T23:03:18.446Z,1027.103882
2023-01-02T23:04:13.259Z,1027.074463
2023-01-02T23:05:15.319Z,1026.994263
2023-01-02T23:06:18.456Z,1026.994263
2023-01-02T23:06:22.237Z,1026.994263
2023-01-02T23:09:04.531Z,1027.030273
2023-01-02T23:10:06.180Z,1026.97168
2023-01-02T23:11:02.813Z,1027.033203
2023-01-02T23:12:04.021Z,1027.059326
2023-01-02T23:14:02.636Z,1027.16333
2023-01-02T23:14:57.350Z,1027.165649
2023-01-02T23:16:30.200Z,1027.187378
2023-01-02T23:18:08.880Z,1027.062012
2023-01-02T23:19:07.476Z,1027.139038
2023-01-02T23:20:02.968Z,1027.152344
2023-01-02T23:21:02.574Z,1027.176392
2023-01-02T23:22:00.636Z,1027.172852
2023-01-02T23:23:59.918Z,1027.215088
2023-01-02T23:24:59.032Z,1027.292847
2023-01-02T23:25:55.530Z,1027.295532
2023-01-02T23:27:01.697Z,1027.265381
2023-01-02T23:29:08.000Z,1027.174561
2023-01-02T23:29:09.118Z,1027.174561
2023-01-02T23:29:56.696Z,1027.330078
2023-01-02T23:30:57.918Z,1027.257446
2023-01-02T23:32:00.569Z,1027.249878
2023-01-02T23:34:02.107Z,1027.236328
2023-01-02T23:34:57.340Z,1027.200806
2023-01-02T23:35:56.375Z,1027.168457
2023-01-02T23:36:51.619Z,1027.224609
2023-01-02T23:38:51.461Z,1027.221924
2023-01-02T23:39:52.858Z,1027.283081
2023-01-02T23:40:48.074Z,1027.287964
2023-01-02T23:41:50.748Z,1027.357666
2023-01-02T23:43:54.851Z,1027.283081
2023-01-02T23:44:49.338Z,1027.264282
2023-01-02T23:46:01.311Z,1027.280518
2023-01-02T23:46:57.226Z,1027.325928
2023-01-02T23:48:52.332Z,1027.243164
2023-01-02T23:49:58.888Z,1027.205811
2023-01-02T23:50:52.753Z,1027.248657
2023-01-02T23:51:54.663Z,1027.189697
2023-01-02T23:52:47.521Z,1027.197998
2023-01-02T23:53:50.211Z,1027.146851
2023-01-02T23:54:42.753Z,1027.133423
2023-01-02T23:55:49.979Z,1027.146851
2023-01-02T23:56:42.553Z,1027.186768
2023-01-02T23:57:41.941Z,1027.162964
2023-01-02T23:59:31.327Z,1027.269897
2023-01-02T23:59:53.407Z,1027.229614
